Time;durP1;ratioP1;P1;durP2;ratioP2;P2;SDS_P1;SDS_P2;PMS_P1;PMS_P2;Temp;Humidity;BMP_temperature;BMP_pressure;BME280_temperature;BME280_humidity;BME280_pressure;Samples;Min_cycle;Max_cycle;Signal;HPM_P1;HPM_P2
2022/08/06 00:02:12;;;;;;;3.22;0.90;;;;;;;;;;5117380;27;20039;-62
2022/08/06 00:04:38;;;;;;;4.38;0.90;;;;;;;;;;5118163;27;20040;-62
2022/08/06 00:07:04;;;;;;;2.42;0.80;;;;;;;;;;5118164;27;20042;-62
2022/08/06 00:09:30;;;;;;;1.88;0.70;;;;;;;;;;5118600;27;20039;-62
2022/08/06 00:11:59;;;;;;;2.45;1.23;;;;;;;;;;5117111;27;20055;-62
2022/08/06 00:14:25;;;;;;;3.42;1.08;;;;;;;;;;5118943;27;20079;-62
2022/08/06 00:16:51;;;;;;;2.90;0.75;;;;;;;;;;5114182;27;20138;-62
2022/08/06 00:19:18;;;;;;;4.70;0.60;;;;;;;;;;5116337;27;20043;-62
2022/08/06 00:21:44;;;;;;;4.13;0.90;;;;;;;;;;5116806;27;20043;-62
2022/08/06 00:24:10;;;;;;;4.25;0.70;;;;;;;;;;5116726;27;20040;-62
2022/08/06 00:26:37;;;;;;;2.05;0.80;;;;;;;;;;5117453;27;20132;-62
2022/08/06 00:29:04;;;;;;;2.03;0.70;;;;;;;;;;5118594;27;20043;-62
2022/08/06 00:31:30;;;;;;;4.68;1.02;;;;;;;;;;5117211;27;20498;-62
2022/08/06 00:34:00;;;;;;;2.95;1.00;;;;;;;;;;5119468;27;20634;-62
2022/08/06 00:36:27;;;;;;;2.50;0.90;;;;;;;;;;5118338;27;20461;-61
2022/08/06 00:38:53;;;;;;;2.67;1.00;;;;;;;;;;5118843;27;20126;-62
2022/08/06 00:41:19;;;;;;;3.00;0.80;;;;;;;;;;5116708;27;20070;-62
2022/08/06 00:43:46;;;;;;;2.88;1.00;;;;;;;;;;5115810;27;20061;-62
2022/08/06 00:46:12;;;;;;;2.05;0.82;;;;;;;;;;5116335;27;20454;-62
2022/08/06 00:48:38;;;;;;;3.28;1.00;;;;;;;;;;5116928;27;20463;-62
2022/08/06 00:51:05;;;;;;;1.90;0.77;;;;;;;;;;5118191;27;20411;-62
2022/08/06 00:53:31;;;;;;;3.05;1.00;;;;;;;;;;5116614;27;20092;-62
2022/08/06 00:55:58;;;;;;;2.38;0.85;;;;;;;;;;5117665;27;20050;-62
2022/08/06 00:58:24;;;;;;;3.65;0.93;;;;;;;;;;5116187;27;20118;-62
2022/08/06 01:00:50;;;;;;;2.83;1.00;;;;;;;;;;5118482;27;20080;-62
2022/08/06 01:03:16;;;;;;;3.05;1.23;;;;;;;;;;5101430;27;20558;-62
2022/08/06 01:05:44;;;;;;;4.93;1.20;;;;;;;;;;5116696;27;20046;-62
2022/08/06 01:08:10;;;;;;;4.30;1.00;;;;;;;;;;5119650;27;20043;-62
2022/08/06 01:10:36;;;;;;;4.15;0.90;;;;;;;;;;5099915;27;20047;-61
2022/08/06 01:13:03;;;;;;;4.50;0.77;;;;;;;;;;5097005;27;20039;-62
2022/08/06 01:15:29;;;;;;;2.80;0.68;;;;;;;;;;5120651;27;20110;-62
2022/08/06 01:17:59;;;;;;;1.63;0.70;;;;;;;;;;5097330;27;20055;-62
2022/08/06 01:20:41;;;;;;;1.80;0.70;;;;;;;;;;5114860;27;20141;-62
2022/08/06 01:23:11;;;;;;;1.48;0.77;;;;;;;;;;5115259;27;20148;-62
2022/08/06 01:25:57;;;;;;;2.03;0.70;;;;;;;;;;5114096;27;20096;-62
2022/08/06 01:28:25;;;;;;;2.70;0.80;;;;;;;;;;5119971;27;20096;-62
2022/08/06 01:30:53;;;;;;;3.60;0.60;;;;;;;;;;5118312;27;20076;-62
2022/08/06 01:33:19;;;;;;;2.50;0.95;;;;;;;;;;5098138;27;20085;-61
2022/08/06 01:35:50;;;;;;;3.28;0.70;;;;;;;;;;5115745;27;20054;-61
2022/08/06 01:38:18;;;;;;;2.92;0.80;;;;;;;;;;5117056;27;20054;-61
2022/08/06 01:40:46;;;;;;;2.38;0.80;;;;;;;;;;5110476;27;20047;-61
2022/08/06 01:43:15;;;;;;;2.33;0.90;;;;;;;;;;5114784;27;20039;-61
2022/08/06 01:45:41;;;;;;;1.58;0.90;;;;;;;;;;5115553;27;20566;-61
2022/08/06 01:48:09;;;;;;;1.38;0.82;;;;;;;;;;5113911;27;20084;-61
2022/08/06 01:50:38;;;;;;;2.63;1.00;;;;;;;;;;5113278;27;20879;-61
2022/08/06 01:53:05;;;;;;;3.45;1.10;;;;;;;;;;5114601;27;20058;-62
2022/08/06 01:55:33;;;;;;;2.78;1.35;;;;;;;;;;5117214;27;20076;-62
2022/08/06 01:58:01;;;;;;;4.07;1.45;;;;;;;;;;5117355;27;20046;-62
2022/08/06 02:00:28;;;;;;;4.03;1.33;;;;;;;;;;5116250;27;20046;-62
2022/08/06 02:02:55;;;;;;;4.38;1.30;;;;;;;;;;5116558;27;20071;-62
2022/08/06 02:05:22;;;;;;;3.70;1.48;;;;;;;;;;5098904;28;20053;-62
2022/08/06 02:07:50;;;;;;;4.63;1.30;;;;;;;;;;5114260;27;20050;-61
2022/08/06 02:10:17;;;;;;;3.22;1.17;;;;;;;;;;5117118;27;20471;-61
2022/08/06 02:12:45;;;;;;;2.33;1.00;;;;;;;;;;5118423;27;20043;-61
2022/08/06 02:15:12;;;;;;;1.42;0.93;;;;;;;;;;5118876;27;20782;-61
2022/08/06 02:17:42;;;;;;;4.38;0.73;;;;;;;;;;5118093;27;20043;-61
2022/08/06 02:20:09;;;;;;;1.88;0.80;;;;;;;;;;5120873;27;20066;-61
2022/08/06 02:22:36;;;;;;;2.65;0.80;;;;;;;;;;5119581;27;20793;-62
2022/08/06 02:25:04;;;;;;;3.63;1.02;;;;;;;;;;5118439;27;20050;-62
2022/08/06 02:27:31;;;;;;;1.67;0.80;;;;;;;;;;5121936;27;20125;-62
2022/08/06 02:29:58;;;;;;;1.63;0.77;;;;;;;;;;5121496;27;20039;-61
2022/08/06 02:32:24;;;;;;;2.33;0.90;;;;;;;;;;5119842;27;20378;-62
2022/08/06 02:34:51;;;;;;;3.58;1.08;;;;;;;;;;5121130;27;20038;-62
2022/08/06 02:37:19;;;;;;;2.30;0.90;;;;;;;;;;5120040;27;20435;-62
2022/08/06 02:39:49;;;;;;;1.83;0.85;;;;;;;;;;5118508;27;20043;-62
2022/08/06 02:42:18;;;;;;;3.03;1.20;;;;;;;;;;5119427;27;20104;-61
2022/08/06 02:44:49;;;;;;;5.03;1.40;;;;;;;;;;5117930;27;20038;-62
2022/08/06 02:47:23;;;;;;;4.75;1.50;;;;;;;;;;5117766;27;20108;-61
2022/08/06 02:49:53;;;;;;;4.85;1.80;;;;;;;;;;5116545;27;20074;-62
2022/08/06 02:52:26;;;;;;;3.92;1.70;;;;;;;;;;5117384;27;20115;-62
2022/08/06 02:54:56;;;;;;;4.50;1.50;;;;;;;;;;5118301;27;20043;-62
2022/08/06 02:57:24;;;;;;;3.78;1.58;;;;;;;;;;5100423;27;20051;-62
2022/08/06 02:59:53;;;;;;;4.30;1.60;;;;;;;;;;5118067;27;20047;-62
2022/08/06 03:02:22;;;;;;;5.55;1.63;;;;;;;;;;5120628;27;20035;-62
2022/08/06 03:04:49;;;;;;;3.15;1.40;;;;;;;;;;5119929;27;20070;-61
2022/08/06 03:07:16;;;;;;;8.57;1.80;;;;;;;;;;5118803;27;20467;-62
2022/08/06 03:09:46;;;;;;;5.05;1.75;;;;;;;;;;5119661;27;20050;-62
2022/08/06 03:12:13;;;;;;;3.90;1.90;;;;;;;;;;5100210;27;22072;-62
2022/08/06 03:14:40;;;;;;;4.00;2.00;;;;;;;;;;5118505;27;20046;-62
2022/08/06 03:17:07;;;;;;;6.30;2.03;;;;;;;;;;5117623;27;20130;-62
2022/08/06 03:19:34;;;;;;;4.70;2.00;;;;;;;;;;5119275;27;20091;-62
2022/08/06 03:22:00;;;;;;;5.20;2.45;;;;;;;;;;5118806;27;20061;-62
2022/08/06 03:24:27;;;;;;;5.47;2.30;;;;;;;;;;5118310;27;20036;-61
2022/08/06 03:26:56;;;;;;;4.20;1.98;;;;;;;;;;5116654;27;20128;-62
2022/08/06 03:29:23;;;;;;;4.60;2.15;;;;;;;;;;5119145;27;20427;-62
2022/08/06 03:31:49;;;;;;;3.75;2.10;;;;;;;;;;5119750;27;20236;-62
2022/08/06 03:34:16;;;;;;;4.30;2.63;;;;;;;;;;5099436;27;20181;-62
2022/08/06 03:36:42;;;;;;;6.95;2.15;;;;;;;;;;5118291;27;20122;-62
2022/08/06 03:39:09;;;;;;;3.88;2.30;;;;;;;;;;5100316;27;20200;-61
2022/08/06 03:41:36;;;;;;;3.53;2.10;;;;;;;;;;5099596;27;20047;-62
2022/08/06 03:44:03;;;;;;;5.32;2.47;;;;;;;;;;5119758;27;20035;-61
2022/08/06 03:46:31;;;;;;;4.30;2.25;;;;;;;;;;5115858;27;20403;-62
2022/08/06 03:48:59;;;;;;;3.08;1.85;;;;;;;;;;5115352;27;20351;-62
2022/08/06 03:51:27;;;;;;;3.83;1.90;;;;;;;;;;5117030;27;20047;-62
2022/08/06 03:53:54;;;;;;;5.80;1.63;;;;;;;;;;5116476;27;20054;-62
2022/08/06 03:56:22;;;;;;;2.38;1.50;;;;;;;;;;5096338;27;20129;-61
2022/08/06 03:58:51;;;;;;;3.55;1.90;;;;;;;;;;5116033;27;20490;-62
2022/08/06 04:01:20;;;;;;;3.53;1.90;;;;;;;;;;5117595;27;20031;-62
2022/08/06 04:03:47;;;;;;;5.35;2.03;;;;;;;;;;5119204;27;20071;-61
2022/08/06 04:06:14;;;;;;;5.53;2.30;;;;;;;;;;5118958;27;20047;-62
2022/08/06 04:08:41;;;;;;;4.43;2.35;;;;;;;;;;5116197;27;20053;-62
2022/08/06 04:11:07;;;;;;;6.38;2.70;;;;;;;;;;5119089;27;20168;-62
2022/08/06 04:13:35;;;;;;;5.05;2.72;;;;;;;;;;5119490;27;20486;-62
2022/08/06 04:16:01;;;;;;;5.13;3.13;;;;;;;;;;5115556;27;20051;-62
2022/08/06 04:18:31;;;;;;;6.68;2.80;;;;;;;;;;5098724;27;20863;-62
2022/08/06 04:20:59;;;;;;;5.53;2.75;;;;;;;;;;5119052;27;20059;-62
2022/08/06 04:23:26;;;;;;;5.07;3.17;;;;;;;;;;5115008;27;20150;-62
2022/08/06 04:25:56;;;;;;;8.40;3.10;;;;;;;;;;5097338;27;20043;-62
2022/08/06 04:28:23;;;;;;;5.80;2.83;;;;;;;;;;5118473;27;20398;-62
2022/08/06 04:30:51;;;;;;;5.70;2.70;;;;;;;;;;5119636;27;20035;-62
2022/08/06 04:33:19;;;;;;;5.25;3.20;;;;;;;;;;5119902;27;20524;-61
2022/08/06 04:35:46;;;;;;;6.60;3.15;;;;;;;;;;5099561;27;20047;-62
2022/08/06 04:38:13;;;;;;;5.75;3.17;;;;;;;;;;5118144;27;20137;-61
2022/08/06 04:40:41;;;;;;;4.70;3.10;;;;;;;;;;5114295;27;20439;-62
2022/08/06 04:43:08;;;;;;;7.85;2.90;;;;;;;;;;5117002;27;20371;-61
2022/08/06 04:45:34;;;;;;;4.57;3.38;;;;;;;;;;5119574;27;20043;-62
2022/08/06 04:48:03;;;;;;;4.75;3.20;;;;;;;;;;5097216;27;20055;-61
2022/08/06 04:50:31;;;;;;;5.93;2.90;;;;;;;;;;5116303;27;20036;-62
2022/08/06 04:53:05;;;;;;;6.75;3.67;;;;;;;;;;5115738;27;20071;-62
2022/08/06 04:55:31;;;;;;;4.57;3.33;;;;;;;;;;5096511;27;20043;-62
2022/08/06 04:57:57;;;;;;;5.07;3.35;;;;;;;;;;5095362;27;20588;-62
2022/08/06 05:00:25;;;;;;;10.85;4.00;;;;;;;;;;5116591;27;20473;-62
2022/08/06 05:02:51;;;;;;;5.25;3.20;;;;;;;;;;5116693;27;20039;-62
2022/08/06 05:05:20;;;;;;;6.03;3.03;;;;;;;;;;5117013;27;20769;-62
2022/08/06 05:07:48;;;;;;;6.72;3.20;;;;;;;;;;5114501;27;20043;-62
2022/08/06 05:10:14;;;;;;;7.10;3.20;;;;;;;;;;5117688;27;20039;-62
2022/08/06 05:12:49;;;;;;;8.77;3.83;;;;;;;;;;5116633;27;20061;-62
2022/08/06 05:15:16;;;;;;;4.55;3.35;;;;;;;;;;5117502;27;20759;-62
2022/08/06 05:17:47;;;;;;;5.85;3.67;;;;;;;;;;5095769;27;20467;-62
2022/08/06 05:20:20;;;;;;;6.00;3.00;;;;;;;;;;5117982;27;20142;-62
2022/08/06 05:22:48;;;;;;;5.97;3.30;;;;;;;;;;5115590;27;20470;-62
2022/08/06 05:25:14;;;;;;;5.70;2.85;;;;;;;;;;5115930;27;20292;-62
2022/08/06 05:27:41;;;;;;;7.65;3.35;;;;;;;;;;5115866;27;20039;-62
2022/08/06 05:30:08;;;;;;;6.13;3.60;;;;;;;;;;5118322;27;20055;-62
2022/08/06 05:32:43;;;;;;;7.10;3.78;;;;;;;;;;5097266;27;20195;-62
2022/08/06 05:35:09;;;;;;;6.82;3.75;;;;;;;;;;5114357;27;22094;-62
2022/08/06 05:37:35;;;;;;;7.43;3.42;;;;;;;;;;5115375;27;20388;-62
2022/08/06 05:40:02;;;;;;;5.75;2.90;;;;;;;;;;5116636;27;20035;-62
2022/08/06 05:42:28;;;;;;;4.07;2.90;;;;;;;;;;5115929;27;20657;-62
2022/08/06 05:44:54;;;;;;;6.10;3.38;;;;;;;;;;5115269;27;20053;-62
2022/08/06 05:47:23;;;;;;;4.90;2.80;;;;;;;;;;5098577;27;20039;-62
2022/08/06 05:49:53;;;;;;;6.53;2.75;;;;;;;;;;5115182;27;20041;-62
2022/08/06 05:52:23;;;;;;;4.95;3.10;;;;;;;;;;5116342;27;20122;-62
2022/08/06 05:55:08;;;;;;;5.03;2.70;;;;;;;;;;5114844;27;20386;-62
2022/08/06 05:57:41;;;;;;;8.90;3.70;;;;;;;;;;5112764;27;20035;-62
2022/08/06 06:00:10;;;;;;;6.95;2.88;;;;;;;;;;5116269;27;20421;-62
2022/08/06 06:02:37;;;;;;;8.18;2.92;;;;;;;;;;5116615;27;20516;-62
2022/08/06 06:05:04;;;;;;;5.97;2.35;;;;;;;;;;5117843;27;20116;-62
2022/08/06 06:07:30;;;;;;;5.25;2.50;;;;;;;;;;5117532;27;20474;-62
2022/08/06 06:09:57;;;;;;;7.63;3.10;;;;;;;;;;5112344;27;20047;-62
2022/08/06 06:12:23;;;;;;;7.28;2.85;;;;;;;;;;5114568;27;20043;-62
2022/08/06 06:14:51;;;;;;;6.47;3.22;;;;;;;;;;5116831;27;20035;-62
2022/08/06 06:17:24;;;;;;;6.28;2.17;;;;;;;;;;5094613;28;20541;-61
2022/08/06 06:19:55;;;;;;;4.88;2.17;;;;;;;;;;5092766;28;20031;-62
2022/08/06 06:22:23;;;;;;;6.80;2.40;;;;;;;;;;5095797;28;20043;-61
2022/08/06 06:24:57;;;;;;;6.45;2.03;;;;;;;;;;5096018;28;20035;-61
2022/08/06 06:27:23;;;;;;;;;;;;;;;;;;5097558;28;20474;-61
2022/08/06 06:29:58;;;;;;;4.95;1.40;;;;;;;;;;5093200;28;19969;-61
2022/08/06 06:32:24;;;;;;;6.22;1.27;;;;;;;;;;5107035;27;20138;-61
2022/08/06 06:34:55;;;;;;;7.68;2.00;;;;;;;;;;5092506;28;20439;-62
2022/08/06 06:37:31;;;;;;;5.75;1.50;;;;;;;;;;5094950;28;20066;-61
2022/08/06 06:40:09;;;;;;;5.15;1.73;;;;;;;;;;5091268;28;20043;-61
2022/08/06 06:42:38;;;;;;;4.53;1.73;;;;;;;;;;5092317;28;20036;-62
2022/08/06 06:45:08;;;;;;;5.60;1.33;;;;;;;;;;5094531;28;20076;-61
2022/08/06 06:47:40;;;;;;;6.63;1.77;;;;;;;;;;5093991;28;20133;-61
2022/08/06 06:50:11;;;;;;;6.05;1.75;;;;;;;;;;5096569;28;20036;-59
2022/08/06 06:52:39;;;;;;;6.95;2.20;;;;;;;;;;5097655;28;20074;-61
2022/08/06 06:55:07;;;;;;;6.68;2.25;;;;;;;;;;5096573;28;20487;-61
2022/08/06 06:57:35;;;;;;;9.90;2.47;;;;;;;;;;5095977;28;20071;-61
2022/08/06 07:00:02;;;;;;;7.22;2.38;;;;;;;;;;5094820;27;20070;-61
2022/08/06 07:02:31;;;;;;;4.20;1.85;;;;;;;;;;5095886;28;20043;-62
2022/08/06 07:05:00;;;;;;;8.45;2.10;;;;;;;;;;5097136;28;20051;-61
2022/08/06 07:07:28;;;;;;;7.00;2.60;;;;;;;;;;5100775;27;20499;-61
2022/08/06 07:09:54;;;;;;;7.60;2.42;;;;;;;;;;5095642;27;20047;-61
2022/08/06 07:12:22;;;;;;;5.35;2.13;;;;;;;;;;5094122;27;20054;-60
2022/08/06 07:14:50;;;;;;;8.50;2.25;;;;;;;;;;5094826;27;20641;-60
2022/08/06 07:17:18;;;;;;;6.47;2.45;;;;;;;;;;5100718;27;20489;-60
2022/08/06 07:19:46;;;;;;;5.97;2.00;;;;;;;;;;5097244;27;20051;-60
2022/08/06 07:22:12;;;;;;;5.93;1.75;;;;;;;;;;5116958;27;20120;-61
2022/08/06 07:24:39;;;;;;;3.90;1.90;;;;;;;;;;5103680;27;20043;-61
2022/08/06 07:27:07;;;;;;;6.15;2.35;;;;;;;;;;5123598;27;20039;-61
2022/08/06 07:29:34;;;;;;;6.13;2.03;;;;;;;;;;5121621;27;20393;-61
2022/08/06 07:32:01;;;;;;;4.78;1.90;;;;;;;;;;5117472;27;20050;-61
2022/08/06 07:34:27;;;;;;;6.45;2.00;;;;;;;;;;5115917;27;20043;-62
2022/08/06 07:36:54;;;;;;;5.03;1.85;;;;;;;;;;5117894;27;20043;-61
2022/08/06 07:39:24;;;;;;;5.00;2.22;;;;;;;;;;5115512;27;20091;-61
2022/08/06 07:41:51;;;;;;;3.75;1.83;;;;;;;;;;5118021;27;20528;-61
2022/08/06 07:44:19;;;;;;;6.00;2.05;;;;;;;;;;5120323;27;20428;-62
2022/08/06 07:46:49;;;;;;;4.38;1.50;;;;;;;;;;5121400;27;20035;-62
2022/08/06 07:49:17;;;;;;;5.57;1.85;;;;;;;;;;5122781;27;20050;-61
2022/08/06 07:51:44;;;;;;;8.50;2.03;;;;;;;;;;5121093;27;20127;-62
2022/08/06 07:54:10;;;;;;;5.25;1.80;;;;;;;;;;5101915;27;20055;-61
2022/08/06 07:56:38;;;;;;;4.28;1.55;;;;;;;;;;5103630;27;20501;-62
2022/08/06 07:59:05;;;;;;;4.22;1.38;;;;;;;;;;5127267;27;20111;-61
2022/08/06 08:01:32;;;;;;;4.93;1.35;;;;;;;;;;5124713;27;20519;-61
2022/08/06 08:06:43;;;;;;;4.03;1.58;;;;;;;;;;5127238;27;20096;-62
2022/08/06 08:09:13;;;;;;;7.32;2.17;;;;;;;;;;5111591;27;20047;-61
2022/08/06 08:11:41;;;;;;;4.65;1.27;;;;;;;;;;5128255;27;20051;-62
2022/08/06 08:14:09;;;;;;;7.38;1.75;;;;;;;;;;5115420;27;20394;-62
2022/08/06 08:16:36;;;;;;;7.03;1.70;;;;;;;;;;5115385;27;20051;-61
2022/08/06 08:19:02;;;;;;;6.00;1.90;;;;;;;;;;5117067;27;20067;-62
2022/08/06 08:21:29;;;;;;;6.63;1.88;;;;;;;;;;5121141;27;20043;-78
2022/08/06 08:23:56;;;;;;;6.43;1.92;;;;;;;;;;5121206;27;20061;-62
2022/08/06 08:26:22;;;;;;;5.07;2.10;;;;;;;;;;5102509;27;20080;-61
2022/08/06 08:28:48;;;;;;;7.10;1.70;;;;;;;;;;5101273;27;20051;-62
2022/08/06 08:31:15;;;;;;;5.30;2.05;;;;;;;;;;5124723;27;20375;-63
2022/08/06 08:33:41;;;;;;;6.55;2.35;;;;;;;;;;5100789;27;20039;-61
2022/08/06 08:36:09;;;;;;;5.43;1.80;;;;;;;;;;5115676;27;20043;-60
2022/08/06 08:38:36;;;;;;;5.07;1.75;;;;;;;;;;5117171;27;20050;-61
2022/08/06 08:41:04;;;;;;;4.43;1.90;;;;;;;;;;5115943;27;20043;-61
2022/08/06 08:43:34;;;;;;;5.05;1.85;;;;;;;;;;5100030;27;20054;-62
2022/08/06 08:46:02;;;;;;;4.40;1.80;;;;;;;;;;5118827;27;21069;-62
2022/08/06 08:48:30;;;;;;;5.03;2.00;;;;;;;;;;5115624;27;20066;-61
2022/08/06 08:50:58;;;;;;;9.68;1.85;;;;;;;;;;5116989;27;20039;-61
2022/08/06 08:53:29;;;;;;;5.95;1.85;;;;;;;;;;5114746;27;20134;-61
2022/08/06 08:55:56;;;;;;;5.20;2.20;;;;;;;;;;5116633;27;20524;-62
2022/08/06 08:58:22;;;;;;;4.85;2.08;;;;;;;;;;5083089;27;20047;-62
2022/08/06 09:00:49;;;;;;;4.53;1.70;;;;;;;;;;5119346;27;20031;-62
2022/08/06 09:03:15;;;;;;;5.13;2.10;;;;;;;;;;5115453;27;20111;-61
2022/08/06 09:05:42;;;;;;;4.57;1.52;;;;;;;;;;5116911;27;20727;-61
2022/08/06 09:08:10;;;;;;;6.88;1.50;;;;;;;;;;5116749;27;20070;-61
2022/08/06 09:10:37;;;;;;;6.25;1.80;;;;;;;;;;5097100;27;20727;-61
2022/08/06 09:13:03;;;;;;;4.88;1.63;;;;;;;;;;5114847;27;20143;-61
2022/08/06 09:15:30;;;;;;;5.82;2.00;;;;;;;;;;5116189;27;20668;-61
2022/08/06 09:17:56;;;;;;;5.05;1.90;;;;;;;;;;5117573;27;20456;-61
2022/08/06 09:20:22;;;;;;;4.13;2.00;;;;;;;;;;5099047;27;20051;-61
2022/08/06 09:22:51;;;;;;;5.88;2.92;;;;;;;;;;5116206;27;20047;-61
2022/08/06 09:25:37;;;;;;;5.72;2.10;;;;;;;;;;5116714;27;20035;-61
2022/08/06 09:28:04;;;;;;;4.38;1.92;;;;;;;;;;5118903;27;20144;-61
2022/08/06 09:30:30;;;;;;;6.28;2.28;;;;;;;;;;5121016;27;20046;-62
2022/08/06 09:32:56;;;;;;;5.43;2.33;;;;;;;;;;5119866;27;20050;-62
2022/08/06 09:35:24;;;;;;;4.00;1.85;;;;;;;;;;5120422;27;20075;-62
2022/08/06 09:37:51;;;;;;;6.60;2.58;;;;;;;;;;5119244;27;20496;-63
2022/08/06 09:40:18;;;;;;;5.63;2.40;;;;;;;;;;5100308;28;20525;-62
2022/08/06 09:42:48;;;;;;;5.82;2.97;;;;;;;;;;5119182;27;20051;-62
2022/08/06 09:45:15;;;;;;;7.00;2.40;;;;;;;;;;5100533;28;20565;-62
2022/08/06 09:47:41;;;;;;;4.05;2.40;;;;;;;;;;5119835;28;20692;-62
2022/08/06 09:50:08;;;;;;;6.82;2.30;;;;;;;;;;5119842;28;20503;-62
2022/08/06 09:52:34;;;;;;;6.43;2.38;;;;;;;;;;5099444;28;20130;-62
2022/08/06 09:55:01;;;;;;;9.98;3.72;;;;;;;;;;5118709;28;20059;-62
2022/08/06 09:57:41;;;;;;;9.57;2.65;;;;;;;;;;5100665;28;20071;-62
2022/08/06 10:00:08;;;;;;;5.05;2.88;;;;;;;;;;5101989;28;20641;-62
2022/08/06 10:02:35;;;;;;;5.93;2.65;;;;;;;;;;5119943;28;20043;-63
2022/08/06 10:05:11;;;;;;;4.50;2.33;;;;;;;;;;5120923;28;20432;-63
2022/08/06 10:07:38;;;;;;;4.32;2.10;;;;;;;;;;5118222;27;20112;-63
2022/08/06 10:10:07;;;;;;;5.35;2.40;;;;;;;;;;5119891;28;20051;-63
2022/08/06 10:12:33;;;;;;;8.45;2.60;;;;;;;;;;5118541;27;20031;-64
2022/08/06 10:15:00;;;;;;;5.40;2.30;;;;;;;;;;5118591;28;20047;-63
2022/08/06 10:17:26;;;;;;;3.60;2.20;;;;;;;;;;5119790;28;20510;-63
2022/08/06 10:20:07;;;;;;;7.70;2.80;;;;;;;;;;5120382;27;20569;-62
2022/08/06 10:22:33;;;;;;;4.15;2.60;;;;;;;;;;5119363;27;20050;-63
2022/08/06 10:25:01;;;;;;;5.95;2.60;;;;;;;;;;5121073;27;21616;-63
2022/08/06 10:27:30;;;;;;;4.80;2.45;;;;;;;;;;5122513;27;20378;-63
2022/08/06 10:29:58;;;;;;;8.52;2.75;;;;;;;;;;5119793;27;20043;-66
2022/08/06 10:32:31;;;;;;;6.63;2.88;;;;;;;;;;5102981;27;20036;-66
2022/08/06 10:34:58;;;;;;;4.50;2.35;;;;;;;;;;5125054;27;20098;-66
2022/08/06 10:37:24;;;;;;;5.35;2.28;;;;;;;;;;5128541;27;20030;-67
2022/08/06 10:39:52;;;;;;;7.35;2.30;;;;;;;;;;5122662;27;20039;-66
2022/08/06 10:42:18;;;;;;;5.68;2.28;;;;;;;;;;5118461;27;20387;-67
2022/08/06 10:44:45;;;;;;;7.15;2.47;;;;;;;;;;5135356;27;20039;-66
2022/08/06 10:47:12;;;;;;;5.25;2.33;;;;;;;;;;5111998;27;20107;-67
2022/08/06 10:49:38;;;;;;;7.65;2.92;;;;;;;;;;5127159;27;21381;-72
2022/08/06 10:52:04;;;;;;;6.32;2.45;;;;;;;;;;5133563;27;20190;-66
2022/08/06 10:54:31;;;;;;;5.88;2.38;;;;;;;;;;5127710;27;20103;-67
2022/08/06 10:56:58;;;;;;;3.72;2.00;;;;;;;;;;5126294;27;20140;-67
2022/08/06 10:59:24;;;;;;;4.75;2.25;;;;;;;;;;5108326;27;20047;-66
2022/08/06 11:01:55;;;;;;;6.10;2.20;;;;;;;;;;5128355;27;20078;-69
2022/08/06 11:04:22;;;;;;;4.35;1.90;;;;;;;;;;5127595;27;20447;-67
2022/08/06 11:06:57;;;;;;;4.30;1.60;;;;;;;;;;5124725;27;20098;-67
2022/08/06 11:09:41;;;;;;;4.25;2.10;;;;;;;;;;5131150;27;20035;-65
2022/08/06 11:12:07;;;;;;;4.93;1.77;;;;;;;;;;5122985;27;20039;-65
2022/08/06 11:14:34;;;;;;;3.72;1.92;;;;;;;;;;5127466;27;20043;-64
2022/08/06 11:17:00;;;;;;;5.47;1.73;;;;;;;;;;5118961;27;20189;-65
2022/08/06 11:19:40;;;;;;;2.55;1.42;;;;;;;;;;5125714;27;20070;-65
2022/08/06 11:22:06;;;;;;;3.45;1.85;;;;;;;;;;5127583;27;20143;-65
2022/08/06 11:24:33;;;;;;;4.10;1.80;;;;;;;;;;5108483;27;20039;-65
2022/08/06 11:26:59;;;;;;;4.25;1.73;;;;;;;;;;5130971;27;20438;-65
2022/08/06 11:29:25;;;;;;;4.35;1.60;;;;;;;;;;5127045;27;20035;-65
2022/08/06 11:31:51;;;;;;;3.58;1.67;;;;;;;;;;5128637;27;20050;-65
2022/08/06 11:34:19;;;;;;;3.75;1.90;;;;;;;;;;5105875;27;20115;-65
2022/08/06 11:36:47;;;;;;;5.13;1.85;;;;;;;;;;5109935;27;20130;-65
2022/08/06 11:39:14;;;;;;;3.78;1.83;;;;;;;;;;5128343;27;20058;-65
2022/08/06 11:41:46;;;;;;;3.78;2.00;;;;;;;;;;5125904;27;20042;-65
2022/08/06 11:44:15;;;;;;;6.05;2.22;;;;;;;;;;5129769;27;20462;-65
2022/08/06 11:46:43;;;;;;;6.57;2.13;;;;;;;;;;5107643;27;20062;-65
2022/08/06 11:49:12;;;;;;;4.75;2.20;;;;;;;;;;5122634;27;20406;-65
2022/08/06 11:51:48;;;;;;;3.35;1.75;;;;;;;;;;5124369;27;20074;-64
2022/08/06 11:54:18;;;;;;;3.40;2.00;;;;;;;;;;5121280;27;21865;-64
2022/08/06 11:57:00;;;;;;;4.45;1.98;;;;;;;;;;5123227;27;20047;-64
2022/08/06 11:59:26;;;;;;;;;;;;;;;;;;5122709;27;20084;-65
2022/08/06 12:01:53;;;;;;;4.22;1.80;;;;;;;;;;5122098;27;20009;-66
2022/08/06 12:04:32;;;;;;;5.30;1.90;;;;;;;;;;5108936;27;20042;-65
2022/08/06 12:07:13;;;;;;;5.20;1.80;;;;;;;;;;5122893;27;20043;-65
2022/08/06 12:09:40;;;;;;;4.82;1.83;;;;;;;;;;5121671;27;20389;-65
2022/08/06 12:12:24;;;;;;;4.05;2.08;;;;;;;;;;5125676;27;20126;-65
2022/08/06 12:14:51;;;;;;;4.05;1.63;;;;;;;;;;5107986;27;20054;-65
2022/08/06 12:17:19;;;;;;;5.80;2.28;;;;;;;;;;5127865;27;20035;-65
2022/08/06 12:19:46;;;;;;;3.45;1.90;;;;;;;;;;5125288;27;20055;-65
2022/08/06 12:22:14;;;;;;;4.47;2.10;;;;;;;;;;5131297;27;20052;-65
2022/08/06 12:24:43;;;;;;;6.05;2.03;;;;;;;;;;5108836;27;20058;-65
2022/08/06 12:27:10;;;;;;;8.25;2.60;;;;;;;;;;5122541;27;20075;-65
2022/08/06 12:29:36;;;;;;;6.20;2.00;;;;;;;;;;5121516;27;20449;-65
2022/08/06 12:32:20;;;;;;;3.00;1.58;;;;;;;;;;5128676;27;20506;-60
2022/08/06 12:34:46;;;;;;;4.03;1.70;;;;;;;;;;5122910;27;20462;-60
2022/08/06 12:37:13;;;;;;;4.35;1.67;;;;;;;;;;5124684;27;20082;-60
2022/08/06 12:42:26;;;;;;;3.78;1.60;;;;;;;;;;5125742;27;20121;-64
2022/08/06 12:44:52;;;;;;;3.90;1.73;;;;;;;;;;5121604;27;20047;-63
2022/08/06 12:47:19;;;;;;;5.03;1.75;;;;;;;;;;5126886;27;20032;-64
2022/08/06 12:49:45;;;;;;;2.90;1.40;;;;;;;;;;5128608;27;20764;-60
2022/08/06 12:52:12;;;;;;;12.27;2.15;;;;;;;;;;5131293;27;20062;-61
2022/08/06 12:54:38;;;;;;;3.25;1.30;;;;;;;;;;5129092;27;20118;-61
2022/08/06 12:57:05;;;;;;;3.53;1.50;;;;;;;;;;5130014;27;20047;-60
2022/08/06 12:59:32;;;;;;;7.85;1.70;;;;;;;;;;5132002;27;20042;-60
2022/08/06 13:01:59;;;;;;;4.47;1.70;;;;;;;;;;5106740;27;20407;-60
2022/08/06 13:04:26;;;;;;;3.50;1.67;;;;;;;;;;5132952;27;20039;-61
2022/08/06 13:06:52;;;;;;;3.83;1.73;;;;;;;;;;5132561;27;20054;-60
2022/08/06 13:09:28;;;;;;;5.45;1.50;;;;;;;;;;5129707;27;20323;-59
2022/08/06 13:11:54;;;;;;;3.78;1.48;;;;;;;;;;5131461;27;20187;-60
2022/08/06 13:14:21;;;;;;;3.17;1.50;;;;;;;;;;5133120;27;20053;-60
2022/08/06 13:16:48;;;;;;;5.10;1.88;;;;;;;;;;5130339;27;20035;-61
2022/08/06 13:19:16;;;;;;;6.70;1.70;;;;;;;;;;5130673;27;20193;-60
2022/08/06 13:21:43;;;;;;;4.28;1.60;;;;;;;;;;5114504;27;20196;-60
2022/08/06 13:24:10;;;;;;;3.92;2.03;;;;;;;;;;5126854;27;20039;-60
2022/08/06 13:26:48;;;;;;;4.20;1.80;;;;;;;;;;5124872;27;20202;-60
2022/08/06 13:29:14;;;;;;;2.53;1.50;;;;;;;;;;5123081;27;20062;-61
2022/08/06 13:31:41;;;;;;;4.85;1.52;;;;;;;;;;5107541;27;20050;-61
2022/08/06 13:34:10;;;;;;;4.47;1.52;;;;;;;;;;5110665;27;20046;-60
2022/08/06 13:36:40;;;;;;;3.80;1.90;;;;;;;;;;5127735;27;20047;-61
2022/08/06 13:39:19;;;;;;;3.65;1.80;;;;;;;;;;5128857;27;20043;-62
2022/08/06 13:41:45;;;;;;;3.70;1.40;;;;;;;;;;5131628;27;20486;-61
2022/08/06 13:44:28;;;;;;;4.05;1.60;;;;;;;;;;5128254;27;20125;-61
2022/08/06 13:46:54;;;;;;;3.70;1.58;;;;;;;;;;5126682;27;20047;-61
2022/08/06 13:49:20;;;;;;;3.65;1.55;;;;;;;;;;5128149;27;20429;-66
2022/08/06 13:51:46;;;;;;;4.15;1.73;;;;;;;;;;5103745;27;20096;-62
2022/08/06 13:54:12;;;;;;;3.72;1.67;;;;;;;;;;5126240;27;20080;-62
2022/08/06 13:56:38;;;;;;;3.45;2.00;;;;;;;;;;5127082;27;20397;-76
2022/08/06 13:59:04;;;;;;;4.25;2.00;;;;;;;;;;5130063;27;20039;-62
2022/08/06 14:01:31;;;;;;;5.38;1.90;;;;;;;;;;5123856;27;20055;-61
2022/08/06 14:03:57;;;;;;;4.03;2.08;;;;;;;;;;5125741;27;20035;-62
2022/08/06 14:06:23;;;;;;;6.65;1.95;;;;;;;;;;5107298;27;20047;-62
2022/08/06 14:08:50;;;;;;;3.75;1.80;;;;;;;;;;5127861;27;20226;-62
2022/08/06 14:11:16;;;;;;;4.93;2.10;;;;;;;;;;5136396;27;20543;-62
2022/08/06 14:13:42;;;;;;;3.17;1.55;;;;;;;;;;5132494;27;20511;-62
2022/08/06 14:16:08;;;;;;;3.55;1.90;;;;;;;;;;5138716;27;20035;-61
2022/08/06 14:18:35;;;;;;;4.60;1.80;;;;;;;;;;5116787;27;20086;-61
2022/08/06 14:21:01;;;;;;;3.70;2.00;;;;;;;;;;5135443;27;20040;-61
2022/08/06 14:23:27;;;;;;;3.13;1.70;;;;;;;;;;5131736;27;20427;-62
2022/08/06 14:25:53;;;;;;;3.70;1.77;;;;;;;;;;5115015;27;20058;-62
2022/08/06 14:28:20;;;;;;;5.05;2.20;;;;;;;;;;5127389;27;20039;-61
2022/08/06 14:30:46;;;;;;;4.93;2.03;;;;;;;;;;5125201;27;20489;-62
2022/08/06 14:33:12;;;;;;;5.95;1.90;;;;;;;;;;5131143;27;20116;-63
2022/08/06 14:35:39;;;;;;;3.25;1.80;;;;;;;;;;5134815;27;20707;-62
2022/08/06 14:38:06;;;;;;;5.53;1.85;;;;;;;;;;5108573;27;20042;-63
2022/08/06 14:46:02;;;;;;;3.28;1.90;;;;;;;;;;5134893;27;20062;-63
2022/08/06 14:48:28;;;;;;;3.75;1.80;;;;;;;;;;5134637;27;20359;-62
2022/08/06 14:50:55;;;;;;;4.70;2.22;;;;;;;;;;5132376;27;20050;-63
2022/08/06 14:53:21;;;;;;;3.50;2.13;;;;;;;;;;5130533;27;20056;-63
2022/08/06 14:55:47;;;;;;;4.75;1.95;;;;;;;;;;5115079;27;20039;-63
2022/08/06 14:58:13;;;;;;;4.82;2.28;;;;;;;;;;5128964;27;20044;-62
2022/08/06 15:00:39;;;;;;;3.78;2.05;;;;;;;;;;5128725;27;20040;-62